createdAt,value
2022-09-06T00:02:05.090Z,36.83
2022-09-06T00:04:32.379Z,36.25
2022-09-06T00:06:59.732Z,36.25
2022-09-06T00:09:27.037Z,36.87
2022-09-06T00:11:54.271Z,36.84
2022-09-06T00:14:21.566Z,36.80
2022-09-06T00:16:48.819Z,36.32
2022-09-06T00:19:17.494Z,36.39
2022-09-06T00:21:44.762Z,36.38
2022-09-06T00:24:12.221Z,36.37
2022-09-06T00:26:39.572Z,36.60
2022-09-06T00:29:06.871Z,36.80
2022-09-06T00:31:35.595Z,36.56
2022-09-06T00:34:03.057Z,36.58
2022-09-06T00:36:31.733Z,36.70
2022-09-06T00:38:59.017Z,37.26
2022-09-06T00:41:26.370Z,36.89
2022-09-06T00:43:54.643Z,37.13
2022-09-06T00:46:25.314Z,37.13
2022-09-06T00:49:03.290Z,37.02
2022-09-06T00:51:34.799Z,37.46
2022-09-06T00:54:03.953Z,37.46
2022-09-06T00:56:34.986Z,37.28
2022-09-06T00:59:02.467Z,37.75
2022-09-06T01:01:29.919Z,38.39
2022-09-06T01:03:57.469Z,37.90
2022-09-06T01:06:36.621Z,37.69
2022-09-06T01:09:21.394Z,38.71
2022-09-06T01:12:08.521Z,38.85
2022-09-06T01:14:55.927Z,38.50
2022-09-06T01:17:41.634Z,39.14
2022-09-06T01:20:41.870Z,38.68
2022-09-06T01:23:55.566Z,39.15
2022-09-06T01:26:56.534Z,39.35
2022-09-06T01:29:33.911Z,39.34
2022-09-06T01:32:14.953Z,39.38
2022-09-06T01:34:50.793Z,39.14
2022-09-06T01:37:20.347Z,39.48
2022-09-06T01:39:47.932Z,39.15
2022-09-06T01:42:22.550Z,39.21
2022-09-06T01:44:56.252Z,39.29
2022-09-06T01:47:39.877Z,39.63
2022-09-06T01:50:35.556Z,39.80
2022-09-06T01:53:22.502Z,39.48
2022-09-06T01:56:00.393Z,39.15
2022-09-06T01:59:01.938Z,39.66
2022-09-06T02:01:39.106Z,39.38
2022-09-06T02:04:19.580Z,39.45
2022-09-06T02:06:54.726Z,39.13
2022-09-06T02:09:28.687Z,39.73
2022-09-06T02:12:00.452Z,39.16
2022-09-06T02:14:33.976Z,39.48
2022-09-06T02:17:05.811Z,39.79
2022-09-06T02:19:39.727Z,39.84
2022-09-06T02:22:12.530Z,39.79
2022-09-06T02:24:44.442Z,39.87
2022-09-06T02:27:13.449Z,39.84
2022-09-06T02:29:41.469Z,39.68
2022-09-06T02:32:17.977Z,39.75
2022-09-06T02:34:46.274Z,39.62
2022-09-06T02:37:17.574Z,40.15
2022-09-06T02:39:45.239Z,39.74
2022-09-06T02:42:15.563Z,40.01
2022-09-06T02:44:43.028Z,39.52
2022-09-06T02:47:11.765Z,39.55
2022-09-06T02:49:39.229Z,39.95
2022-09-06T02:52:06.544Z,39.67
2022-09-06T02:54:33.798Z,39.80
2022-09-06T02:57:01.077Z,40.02
2022-09-06T02:59:28.354Z,39.71
2022-09-06T03:01:55.704Z,39.71
2022-09-06T03:04:24.611Z,39.56
2022-09-06T03:06:51.926Z,40.06
2022-09-06T03:09:19.214Z,39.65
2022-09-06T03:11:46.478Z,39.60
2022-09-06T03:14:16.203Z,39.87
2022-09-06T03:16:45.389Z,39.57
2022-09-06T03:19:12.781Z,40.26
2022-09-06T03:21:41.404Z,40.24
2022-09-06T03:24:08.700Z,39.74
2022-09-06T03:26:35.930Z,39.99
2022-09-06T03:29:03.227Z,39.93
2022-09-06T03:31:30.485Z,39.85
2022-09-06T03:33:57.875Z,40.17
2022-09-06T03:36:25.126Z,40.12
2022-09-06T03:38:54.150Z,39.92
2022-09-06T03:41:21.561Z,40.16
2022-09-06T03:43:48.810Z,40.16
2022-09-06T03:46:16.132Z,40.22
2022-09-06T03:48:43.432Z,40.26
2022-09-06T03:51:10.651Z,40.25
2022-09-06T03:53:37.968Z,40.13
2022-09-06T03:56:06.982Z,40.21
2022-09-06T03:58:34.292Z,39.89
2022-09-06T04:01:05.550Z,39.65
2022-09-06T04:03:33.967Z,39.78
2022-09-06T04:06:01.900Z,39.80
2022-09-06T04:08:29.667Z,39.89
2022-09-06T04:10:58.464Z,40.03
2022-09-06T04:13:28.992Z,39.58
2022-09-06T04:15:56.851Z,39.64
2022-09-06T04:18:24.405Z,39.68
2022-09-06T04:20:55.911Z,39.61
2022-09-06T04:23:25.440Z,39.84
2022-09-06T04:25:55.236Z,39.49
2022-09-06T04:28:23.638Z,39.79
2022-09-06T04:30:55.331Z,39.51
2022-09-06T04:33:26.745Z,39.86
2022-09-06T04:35:54.899Z,40.00
2022-09-06T04:38:22.533Z,39.90
2022-09-06T04:40:50.142Z,39.59
2022-09-06T04:43:17.792Z,39.88
2022-09-06T04:45:45.697Z,39.67
2022-09-06T04:48:14.701Z,39.48
2022-09-06T04:50:42.647Z,39.89
2022-09-06T04:53:11.111Z,39.75
2022-09-06T04:55:38.756Z,39.57
2022-09-06T04:58:06.614Z,39.56
2022-09-06T05:00:36.057Z,40.05
2022-09-06T05:03:03.318Z,39.61
2022-09-06T05:05:31.949Z,39.66
2022-09-06T05:07:59.208Z,39.79
2022-09-06T05:10:26.640Z,39.73
2022-09-06T05:12:55.032Z,39.48
2022-09-06T05:15:23.222Z,39.73
2022-09-06T05:17:50.555Z,39.47
2022-09-06T05:20:18.692Z,39.64
2022-09-06T05:22:54.377Z,39.81
2022-09-06T05:25:21.721Z,39.89
2022-09-06T05:27:49.116Z,39.78
2022-09-06T05:30:18.097Z,39.85
2022-09-06T05:32:45.623Z,39.74
2022-09-06T05:35:13.032Z,39.76
2022-09-06T05:37:40.512Z,39.79
2022-09-06T05:40:10.741Z,39.74
2022-09-06T05:42:38.348Z,39.80
2022-09-06T05:45:06.953Z,39.76
2022-09-06T05:47:35.488Z,39.76
2022-09-06T05:50:03.838Z,39.70
2022-09-06T05:52:31.178Z,39.67
2022-09-06T05:54:58.471Z,39.38
2022-09-06T05:57:27.400Z,39.36
2022-09-06T05:59:54.653Z,39.52
2022-09-06T06:02:22.959Z,39.69
2022-09-06T06:04:52.114Z,39.64
2022-09-06T06:07:19.403Z,39.61
2022-09-06T06:09:46.751Z,39.48
2022-09-06T06:12:14.077Z,39.54
2022-09-06T06:14:42.772Z,39.47
2022-09-06T06:17:10.127Z,39.37
2022-09-06T06:19:37.549Z,39.32
2022-09-06T06:22:05.067Z,39.79
2022-09-06T06:24:32.370Z,39.92
2022-09-06T06:26:59.692Z,39.92
2022-09-06T06:29:26.999Z,39.71
2022-09-06T06:31:56.130Z,39.93
2022-09-06T06:34:23.468Z,39.81
2022-09-06T06:36:50.701Z,39.90
2022-09-06T06:39:17.971Z,39.72
2022-09-06T06:41:45.506Z,40.04
2022-09-06T06:44:12.803Z,39.45
2022-09-06T06:46:41.612Z,39.23
2022-09-06T06:49:10.710Z,39.08
2022-09-06T06:51:38.143Z,39.21
2022-09-06T06:54:06.007Z,38.94
2022-09-06T06:56:36.715Z,39.00
2022-09-06T06:59:07.025Z,39.41
2022-09-06T07:01:36.382Z,39.30
2022-09-06T07:04:05.148Z,38.96
2022-09-06T07:12:24.630Z,38.52
2022-09-06T07:14:52.423Z,38.40
2022-09-06T07:17:19.849Z,38.34
2022-09-06T07:22:36.479Z,38.08
2022-09-06T07:25:05.409Z,38.06
2022-09-06T07:27:48.875Z,37.70
2022-09-06T07:30:17.456Z,37.69
2022-09-06T07:32:44.689Z,37.67
2022-09-06T07:35:13.944Z,37.58
2022-09-06T07:37:42.837Z,37.27
2022-09-06T07:40:11.677Z,37.09
2022-09-06T07:42:40.946Z,37.25
2022-09-06T07:45:09.734Z,37.34
2022-09-06T07:53:16.675Z,37.78
2022-09-06T07:55:47.047Z,37.48
2022-09-06T07:58:14.372Z,38.22
2022-09-06T08:00:41.803Z,37.89
2022-09-06T08:03:10.244Z,37.89
2022-09-06T08:11:14.209Z,37.79
2022-09-06T08:13:42.353Z,37.43
2022-09-06T08:16:11.967Z,37.68
2022-09-06T08:18:39.522Z,38.12
2022-09-06T08:21:12.199Z,37.87
2022-09-06T08:23:45.949Z,37.80
2022-09-06T08:26:14.052Z,37.53
2022-09-06T08:28:41.814Z,37.92
2022-09-06T08:31:11.779Z,37.47
2022-09-06T08:33:40.973Z,37.95
2022-09-06T08:36:09.538Z,37.85
2022-09-06T08:38:37.675Z,37.92
2022-09-06T08:41:21.448Z,38.08
2022-09-06T08:46:54.328Z,37.99
2022-09-06T08:49:22.050Z,37.96
2022-09-06T08:52:10.680Z,37.74
2022-09-06T08:54:45.950Z,37.86
2022-09-06T08:57:34.955Z,37.79
2022-09-06T09:00:11.078Z,38.02
2022-09-06T09:02:45.852Z,38.21
2022-09-06T09:05:27.565Z,37.68
2022-09-06T09:08:13.522Z,38.14
2022-09-06T09:10:46.161Z,38.05
2022-09-06T09:13:25.659Z,37.95
2022-09-06T09:15:54.134Z,38.24
2022-09-06T09:18:28.138Z,37.43
2022-09-06T09:20:56.100Z,38.13
2022-09-06T09:23:23.398Z,37.88
2022-09-06T09:25:55.501Z,37.58
2022-09-06T09:28:24.916Z,37.40
2022-09-06T09:30:55.766Z,37.61
2022-09-06T09:33:30.419Z,37.71
2022-09-06T09:36:01.242Z,37.68
2022-09-06T09:38:33.014Z,37.29
2022-09-06T09:41:05.255Z,37.98
2022-09-06T09:43:37.831Z,38.36
2022-09-06T09:46:27.838Z,38.80
2022-09-06T09:49:05.667Z,39.52
2022-09-06T09:51:36.660Z,39.09
2022-09-06T09:54:06.899Z,39.40
2022-09-06T09:56:43.752Z,39.74
2022-09-06T09:59:29.217Z,39.57
2022-09-06T10:02:01.456Z,40.03
2022-09-06T10:04:45.342Z,40.21
2022-09-06T10:07:16.232Z,39.56
2022-09-06T10:09:47.239Z,40.02
2022-09-06T10:12:19.810Z,39.73
2022-09-06T10:14:49.800Z,39.45
2022-09-06T10:17:30.433Z,39.03
2022-09-06T10:20:03.569Z,39.53
2022-09-06T10:22:33.714Z,39.41
2022-09-06T10:25:39.647Z,38.98
2022-09-06T10:28:33.418Z,38.84
2022-09-06T10:31:31.478Z,39.14
2022-09-06T10:34:40.849Z,39.12
2022-09-06T10:37:26.575Z,39.31
2022-09-06T10:40:02.790Z,39.52
2022-09-06T10:42:39.193Z,39.66
2022-09-06T10:45:44.727Z,40.59
2022-09-06T10:48:24.231Z,40.21
2022-09-06T10:50:58.108Z,40.34
2022-09-06T10:53:49.008Z,40.50
2022-09-06T10:56:24.017Z,40.55
2022-09-06T11:02:00.375Z,41.67
2022-09-06T11:07:30.021Z,41.96
2022-09-06T11:10:03.059Z,42.82
2022-09-06T11:12:40.235Z,42.56
2022-09-06T11:15:13.220Z,42.48
2022-09-06T11:17:51.285Z,42.45
2022-09-06T11:20:32.005Z,42.76
2022-09-06T11:23:48.554Z,43.39
2022-09-06T11:26:45.752Z,43.49
2022-09-06T11:29:22.725Z,43.16
2022-09-06T11:34:51.825Z,43.42
2022-09-06T11:37:30.698Z,43.59
2022-09-06T11:40:32.121Z,42.94
2022-09-06T11:43:42.731Z,42.76
2022-09-06T11:46:58.923Z,42.75
2022-09-06T11:49:37.333Z,42.32
2022-09-06T11:53:03.009Z,42.78
2022-09-06T11:55:38.442Z,42.41
2022-09-06T11:58:19.181Z,42.01
2022-09-06T12:01:25.521Z,40.94
2022-09-06T12:04:07.877Z,40.62
2022-09-06T12:06:40.778Z,40.93
2022-09-06T12:09:29.399Z,39.92
2022-09-06T12:11:59.426Z,40.03
2022-09-06T12:14:40.321Z,39.85
2022-09-06T12:17:47.709Z,40.33
2022-09-06T12:21:01.324Z,39.76
2022-09-06T12:23:42.599Z,39.56
2022-09-06T12:26:11.197Z,39.88
2022-09-06T12:28:49.742Z,39.48
2022-09-06T12:31:29.403Z,39.75
2022-09-06T12:33:58.475Z,39.10
2022-09-06T12:36:31.059Z,38.85
2022-09-06T12:39:02.376Z,38.84
2022-09-06T12:41:40.420Z,38.46
2022-09-06T12:44:16.235Z,38.19
2022-09-06T12:46:47.880Z,38.63
2022-09-06T12:49:23.333Z,38.17
2022-09-06T12:51:51.073Z,37.84
2022-09-06T12:54:22.491Z,37.65
2022-09-06T12:56:50.610Z,37.54
2022-09-06T12:59:22.048Z,37.54
2022-09-06T13:02:00.914Z,37.91
2022-09-06T13:04:37.729Z,37.80
2022-09-06T13:07:09.316Z,37.72
2022-09-06T13:09:40.536Z,37.99
2022-09-06T13:12:37.439Z,37.32
2022-09-06T13:15:13.849Z,37.38
2022-09-06T13:17:41.491Z,37.30
2022-09-06T13:20:22.012Z,37.35
2022-09-06T13:22:52.190Z,37.04
2022-09-06T13:25:26.211Z,36.84
2022-09-06T13:27:58.436Z,36.78
2022-09-06T13:30:41.959Z,36.55
2022-09-06T13:33:25.471Z,36.55
2022-09-06T13:36:08.419Z,36.17
2022-09-06T13:38:41.924Z,36.30
2022-09-06T13:41:41.155Z,36.17
2022-09-06T13:44:27.450Z,36.23
2022-09-06T13:46:56.502Z,36.31
2022-09-06T13:49:24.073Z,36.12
2022-09-06T13:51:53.673Z,36.27
2022-09-06T13:54:22.910Z,36.18
2022-09-06T13:56:50.755Z,36.04
2022-09-06T13:59:19.076Z,36.25
2022-09-06T14:01:49.842Z,36.36
2022-09-06T14:04:21.544Z,36.43
2022-09-06T14:06:49.702Z,36.43
2022-09-06T14:09:17.078Z,36.15
2022-09-06T14:11:48.197Z,35.67
2022-09-06T14:14:17.757Z,35.43
2022-09-06T14:16:47.578Z,34.97
2022-09-06T14:19:15.970Z,35.13
2022-09-06T14:21:44.711Z,35.53
2022-09-06T14:24:12.369Z,35.71
2022-09-06T14:26:39.877Z,36.01
2022-09-06T14:29:08.236Z,36.36
2022-09-06T14:31:35.648Z,36.17
2022-09-06T14:34:04.188Z,36.70
2022-09-06T14:36:34.723Z,36.74
2022-09-06T14:39:04.492Z,36.95
2022-09-06T14:41:32.660Z,37.14
2022-09-06T14:44:00.578Z,37.16
2022-09-06T14:46:29.789Z,37.28
2022-09-06T14:48:59.469Z,37.23
2022-09-06T14:51:27.263Z,37.29
2022-09-06T14:53:57.517Z,37.48
2022-09-06T14:56:27.091Z,37.63
2022-09-06T14:58:57.465Z,37.67
2022-09-06T15:01:28.618Z,37.77
2022-09-06T15:03:59.097Z,37.68
2022-09-06T15:06:27.885Z,37.86
2022-09-06T15:08:59.304Z,37.50
2022-09-06T15:11:34.647Z,36.97
2022-09-06T15:14:04.255Z,36.43
2022-09-06T15:16:32.757Z,36.26
2022-09-06T15:19:02.293Z,36.16
2022-09-06T15:21:31.744Z,35.78
2022-09-06T15:24:00.318Z,35.78
2022-09-06T15:26:30.580Z,35.94
2022-09-06T15:28:58.012Z,35.63
2022-09-06T15:31:25.558Z,35.98
2022-09-06T15:33:54.053Z,36.11
2022-09-06T15:36:22.508Z,36.08
2022-09-06T15:38:52.403Z,36.04
2022-09-06T15:41:24.327Z,36.09
2022-09-06T15:43:56.708Z,36.06
2022-09-06T15:46:43.901Z,36.28
2022-09-06T15:49:15.633Z,36.42
2022-09-06T15:51:43.386Z,36.60
2022-09-06T15:54:12.946Z,36.19
2022-09-06T15:56:41.024Z,35.70
2022-09-06T15:59:10.823Z,35.55
2022-09-06T16:01:38.992Z,35.65
2022-09-06T16:04:07.218Z,36.01
2022-09-06T16:06:39.577Z,36.05
2022-09-06T16:09:10.942Z,36.25
2022-09-06T16:11:38.814Z,36.72
2022-09-06T16:14:10.090Z,36.49
2022-09-06T16:16:38.324Z,36.72
2022-09-06T16:19:06.488Z,37.05
2022-09-06T16:21:37.956Z,36.81
2022-09-06T16:24:08.216Z,37.27
2022-09-06T16:26:39.201Z,37.22
2022-09-06T16:29:10.331Z,37.43
2022-09-06T16:31:40.520Z,37.28
2022-09-06T16:34:08.941Z,37.12
2022-09-06T16:36:37.274Z,37.21
2022-09-06T16:39:05.517Z,37.67
2022-09-06T16:41:39.420Z,37.08
2022-09-06T16:44:07.516Z,37.24
2022-09-06T16:46:36.618Z,36.97
2022-09-06T16:49:04.724Z,37.37
2022-09-06T16:51:32.547Z,37.05
2022-09-06T16:54:01.574Z,36.87
2022-09-06T16:56:33.534Z,36.92
2022-09-06T16:59:04.550Z,36.86
2022-09-06T17:01:33.586Z,36.38
2022-09-06T17:04:03.956Z,36.23
2022-09-06T17:06:42.070Z,36.69
2022-09-06T17:09:09.721Z,36.10
2022-09-06T17:11:38.776Z,36.13
2022-09-06T17:14:06.683Z,35.89
2022-09-06T17:16:52.899Z,35.73
2022-09-06T17:19:22.100Z,35.65
2022-09-06T17:21:49.674Z,35.62
2022-09-06T17:24:17.115Z,36.01
2022-09-06T17:26:44.534Z,36.14
2022-09-06T17:29:11.964Z,36.60
2022-09-06T17:31:39.531Z,36.63
2022-09-06T17:34:07.760Z,36.77
2022-09-06T17:36:37.117Z,36.78
2022-09-06T17:39:08.241Z,37.07
2022-09-06T17:41:38.926Z,37.22
2022-09-06T17:44:08.136Z,37.72
2022-09-06T17:46:35.542Z,37.74
2022-09-06T17:49:09.417Z,38.01
2022-09-06T17:51:39.191Z,37.82
2022-09-06T17:54:08.532Z,38.44
2022-09-06T17:56:37.104Z,38.03
2022-09-06T17:59:08.250Z,38.54
2022-09-06T18:01:38.542Z,38.69
2022-09-06T18:04:14.437Z,39.09
2022-09-06T18:06:47.527Z,38.53
2022-09-06T18:09:17.816Z,39.28
2022-09-06T18:11:47.035Z,39.56
2022-09-06T18:14:17.662Z,39.09
2022-09-06T18:16:47.227Z,39.59
2022-09-06T18:19:15.491Z,39.86
2022-09-06T18:21:43.218Z,39.38
2022-09-06T18:24:15.979Z,39.98
2022-09-06T18:26:44.576Z,40.09
2022-09-06T18:29:16.733Z,40.58
2022-09-06T18:31:44.851Z,40.17
2022-09-06T18:34:12.588Z,40.94
2022-09-06T18:36:40.445Z,40.46
2022-09-06T18:39:08.636Z,41.00
2022-09-06T18:41:55.808Z,41.23
2022-09-06T18:44:23.760Z,41.58
2022-09-06T18:46:55.708Z,41.62
2022-09-06T18:49:23.182Z,41.83
2022-09-06T18:51:50.858Z,41.78
2022-09-06T18:54:18.564Z,42.01
2022-09-06T18:56:49.967Z,42.03
2022-09-06T18:59:18.054Z,41.84
2022-09-06T19:01:45.695Z,42.48
2022-09-06T19:04:15.087Z,42.37
2022-09-06T19:06:44.347Z,42.27
2022-09-06T19:09:14.990Z,42.37
2022-09-06T19:11:45.466Z,42.27
2022-09-06T19:14:14.406Z,42.94
2022-09-06T19:16:42.216Z,42.82
2022-09-06T19:19:11.718Z,42.52
2022-09-06T19:21:42.037Z,42.81
2022-09-06T19:24:12.485Z,43.35
2022-09-06T19:26:44.122Z,43.40
2022-09-06T19:29:17.123Z,42.99
2022-09-06T19:31:46.967Z,43.50
2022-09-06T19:34:15.580Z,43.75
2022-09-06T19:36:44.605Z,43.73
2022-09-06T19:39:15.581Z,43.72
2022-09-06T19:41:45.164Z,43.41
2022-09-06T19:44:16.058Z,43.39
2022-09-06T19:46:46.148Z,43.61
2022-09-06T19:49:15.393Z,44.17
2022-09-06T19:51:45.243Z,43.40
2022-09-06T19:54:12.944Z,44.13
2022-09-06T19:56:44.347Z,43.96
2022-09-06T19:59:14.782Z,43.83
2022-09-06T20:01:45.383Z,44.23
2022-09-06T20:04:14.372Z,44.15
2022-09-06T20:06:42.270Z,44.03
2022-09-06T20:09:11.203Z,43.96
2022-09-06T20:11:41.739Z,44.41
2022-09-06T20:14:10.355Z,43.87
2022-09-06T20:16:42.210Z,44.03
2022-09-06T20:19:12.251Z,44.39
2022-09-06T20:21:40.014Z,44.28
2022-09-06T20:24:08.010Z,44.31
2022-09-06T20:26:35.752Z,44.69
2022-09-06T20:29:05.052Z,44.62
2022-09-06T20:31:34.562Z,44.58
2022-09-06T20:34:05.564Z,44.64
2022-09-06T20:36:32.983Z,44.66
2022-09-06T20:39:00.520Z,44.56
2022-09-06T20:41:28.015Z,44.87
2022-09-06T20:43:57.502Z,45.21
2022-09-06T20:46:27.629Z,45.01
2022-09-06T20:48:59.679Z,45.25
2022-09-06T20:51:28.406Z,45.12
2022-09-06T20:53:58.042Z,45.28
2022-09-06T20:56:27.997Z,45.16
2022-09-06T20:58:58.929Z,45.05
2022-09-06T21:01:29.538Z,45.22
2022-09-06T21:03:59.825Z,45.44
2022-09-06T21:06:31.312Z,45.20
2022-09-06T21:08:58.603Z,45.36
2022-09-06T21:11:26.325Z,45.30
2022-09-06T21:13:56.412Z,45.35
2022-09-06T21:16:27.548Z,45.45
2022-09-06T21:18:57.278Z,45.44
2022-09-06T21:21:25.896Z,45.42
2022-09-06T21:23:55.028Z,45.76
2022-09-06T21:26:23.209Z,45.76
2022-09-06T21:28:50.907Z,45.86
2022-09-06T21:31:24.134Z,45.94
2022-09-06T21:33:54.098Z,45.73
2022-09-06T21:36:24.517Z,45.94
2022-09-06T21:38:56.271Z,46.23
2022-09-06T21:41:24.004Z,46.03
2022-09-06T21:43:53.672Z,46.18
2022-09-06T21:46:26.011Z,46.25
2022-09-06T21:48:56.354Z,46.12
2022-09-06T21:51:27.295Z,46.59
2022-09-06T21:54:03.330Z,46.37
2022-09-06T21:56:31.829Z,46.53
2022-09-06T21:58:59.774Z,46.24
2022-09-06T22:01:31.956Z,46.49
2022-09-06T22:04:00.254Z,46.33
2022-09-06T22:06:30.704Z,46.22
2022-09-06T22:09:03.874Z,46.50
2022-09-06T22:11:34.065Z,46.55
2022-09-06T22:14:04.827Z,46.54
2022-09-06T22:16:35.086Z,46.52
2022-09-06T22:19:04.757Z,46.96
2022-09-06T22:21:33.682Z,46.66
2022-09-06T22:24:05.126Z,46.89
2022-09-06T22:26:35.383Z,46.81
2022-09-06T22:29:06.914Z,46.94
2022-09-06T22:31:36.167Z,47.02
2022-09-06T22:38:09.751Z,47.55
2022-09-06T22:41:06.739Z,47.70
2022-09-06T22:52:16.793Z,47.74
2022-09-06T22:54:44.142Z,47.81
2022-09-06T22:57:13.033Z,47.71
2022-09-06T22:59:40.454Z,47.71
2022-09-06T23:02:07.809Z,47.79
2022-09-06T23:04:35.169Z,47.65
2022-09-06T23:07:02.674Z,47.67
2022-09-06T23:09:30.007Z,47.96
2022-09-06T23:11:57.352Z,47.78
2022-09-06T23:14:28.130Z,47.91
2022-09-06T23:16:55.502Z,47.77
2022-09-06T23:19:22.813Z,47.69
2022-09-06T23:21:50.146Z,47.66
2022-09-06T23:24:17.491Z,47.67
2022-09-06T23:26:44.915Z,47.64
2022-09-06T23:29:12.830Z,47.73
2022-09-06T23:31:42.502Z,47.62
2022-09-06T23:34:10.069Z,47.60
2022-09-06T23:36:37.517Z,47.72
2022-09-06T23:39:07.115Z,47.62
2022-09-06T23:41:34.981Z,47.74
2022-09-06T23:44:03.288Z,47.88
2022-09-06T23:46:31.799Z,47.75
2022-09-06T23:49:01.015Z,47.86
2022-09-06T23:51:28.407Z,47.98
2022-09-06T23:53:55.874Z,48.15
2022-09-06T23:56:23.197Z,48.13
2022-09-06T23:58:50.663Z,48.07
